createdAt,value
2022-08-22T00:01:10.754Z,98501.23
2022-08-22T00:02:39.671Z,98504.11
2022-08-22T00:02:45.721Z,98770.19
2022-08-22T00:02:47.978Z,98795.30
2022-08-22T00:03:15.795Z,98511.60
2022-08-22T00:04:06.467Z,98506.59
2022-08-22T00:05:46.449Z,98505.09
2022-08-22T00:07:13.478Z,98505.77
2022-08-22T00:08:28.113Z,98510.23
2022-08-22T00:09:56.290Z,98506.01
2022-08-22T00:11:16.001Z,98506.45
2022-08-22T00:12:48.374Z,98504.11
2022-08-22T00:14:01.847Z,98502.55
2022-08-22T00:15:31.574Z,98501.30
2022-08-22T00:16:57.893Z,98496.88
2022-08-22T00:18:41.217Z,98498.48
2022-08-22T00:20:04.419Z,98498.16
2022-08-22T00:21:58.917Z,98499.63
2022-08-22T00:23:18.738Z,98497.29
2022-08-22T00:24:34.853Z,98497.59
2022-08-22T00:25:58.758Z,98500.73
2022-08-22T00:27:12.427Z,98501.94
2022-08-22T00:28:25.609Z,98504.98
2022-08-22T00:29:51.781Z,98508.35
2022-08-22T00:31:37.838Z,98505.96
2022-08-22T00:32:52.716Z,98510.61
2022-08-22T00:34:26.441Z,98512.45
2022-08-22T00:35:44.843Z,98511.14
2022-08-22T00:36:55.698Z,98509.89
2022-08-22T00:38:10.849Z,98505.60
2022-08-22T00:39:27.097Z,98511.57
2022-08-22T00:40:46.579Z,98511.06
2022-08-22T00:42:16.104Z,98506.82
2022-08-22T00:43:51.200Z,98509.07
2022-08-22T00:45:29.128Z,98508.96
2022-08-22T00:46:42.409Z,98509.81
2022-08-22T00:47:53.827Z,98508.90
2022-08-22T00:49:33.367Z,98505.98
2022-08-22T00:50:50.427Z,98507.88
2022-08-22T00:52:06.191Z,98509.77
2022-08-22T00:53:49.459Z,98507.83
2022-08-22T00:55:25.856Z,98504.88
2022-08-22T00:56:45.993Z,98507.27
2022-08-22T00:58:25.387Z,98506.58
2022-08-22T00:59:58.807Z,98508.05
2022-08-22T01:01:11.957Z,98507.14
2022-08-22T01:02:57.142Z,98508.80
2022-08-22T01:04:26.991Z,98508.92
2022-08-22T01:05:47.439Z,98506.33
2022-08-22T01:07:05.488Z,98508.79
2022-08-22T01:08:19.712Z,98506.19
2022-08-22T01:10:05.561Z,98504.48
2022-08-22T01:11:31.399Z,98504.98
2022-08-22T01:12:55.888Z,98506.11
2022-08-22T01:14:34.387Z,98509.54
2022-08-22T01:15:42.502Z,98504.82
2022-08-22T01:17:02.565Z,98501.58
2022-08-22T01:18:20.712Z,98501.94
2022-08-22T01:19:46.480Z,98501.77
2022-08-22T01:21:20.710Z,98505.23
2022-08-22T01:22:52.417Z,98504.81
2022-08-22T01:24:17.698Z,98503.68
2022-08-22T01:25:41.628Z,98505.19
2022-08-22T01:27:06.481Z,98502.14
2022-08-22T01:28:23.208Z,98500.45
2022-08-22T01:29:58.021Z,98504.20
2022-08-22T01:31:36.223Z,98509.02
2022-08-22T01:32:59.836Z,98507.55
2022-08-22T01:34:32.993Z,98507.77
2022-08-22T01:36:16.994Z,98508.20
2022-08-22T01:37:54.937Z,98511.69
2022-08-22T01:39:27.370Z,98509.57
2022-08-22T01:40:53.365Z,98506.84
2022-08-22T01:42:38.721Z,98510.36
2022-08-22T01:44:27.853Z,98515.98
2022-08-22T01:45:59.419Z,98514.23
2022-08-22T01:47:26.090Z,98514.39
2022-08-22T01:48:47.931Z,98514.48
2022-08-22T01:50:02.244Z,98512.95
2022-08-22T01:51:42.891Z,98521.23
2022-08-22T01:53:04.252Z,98523.83
2022-08-22T01:54:31.669Z,98524.59
2022-08-22T01:55:41.512Z,98531.08
2022-08-22T01:56:49.795Z,98535.10
2022-08-22T01:58:00.852Z,98532.14
2022-08-22T01:59:17.624Z,98536.75
2022-08-22T02:00:35.093Z,98538.81
2022-08-22T02:01:54.239Z,98542.10
2022-08-22T02:03:11.910Z,98538.88
2022-08-22T02:04:20.728Z,98541.71
2022-08-22T02:05:48.959Z,98540.15
2022-08-22T02:07:03.225Z,98546.70
2022-08-22T02:08:51.753Z,98548.93
2022-08-22T02:10:18.766Z,98553.52
2022-08-22T02:11:55.328Z,98555.57
2022-08-22T02:13:21.860Z,98556.84
2022-08-22T02:14:36.102Z,98559.36
2022-08-22T02:16:07.837Z,98559.39
2022-08-22T02:17:25.080Z,98564.83
2022-08-22T02:18:51.434Z,98564.00
2022-08-22T02:20:51.487Z,98566.66
2022-08-22T02:22:31.550Z,98565.92
2022-08-22T02:23:57.008Z,98564.17
2022-08-22T02:25:27.191Z,98563.38
2022-08-22T02:26:56.647Z,98566.54
2022-08-22T02:28:10.831Z,98574.61
2022-08-22T02:29:32.029Z,98576.83
2022-08-22T02:30:53.980Z,98580.02
2022-08-22T02:32:37.131Z,98583.32
2022-08-22T02:34:00.354Z,98586.48
2022-08-22T02:35:16.008Z,98587.83
2022-08-22T02:36:34.906Z,98588.53
2022-08-22T02:38:00.420Z,98589.83
2022-08-22T02:39:42.329Z,98588.71
2022-08-22T02:41:14.781Z,98590.63
2022-08-22T02:42:26.157Z,98594.62
2022-08-22T02:43:42.773Z,98597.56
2022-08-22T02:45:16.070Z,98598.75
2022-08-22T02:46:48.969Z,98600.67
2022-08-22T02:48:02.348Z,98601.67
2022-08-22T02:49:29.517Z,98603.58
2022-08-22T02:50:41.505Z,98603.77
2022-08-22T02:52:03.541Z,98604.07
2022-08-22T02:53:31.843Z,98606.73
2022-08-22T02:55:09.326Z,98608.56
2022-08-22T02:56:34.618Z,98612.82
2022-08-22T02:57:47.177Z,98615.64
2022-08-22T02:59:16.890Z,98617.31
2022-08-22T03:00:33.380Z,98617.88
2022-08-22T03:01:43.534Z,98616.08
2022-08-22T03:03:21.798Z,98617.65
2022-08-22T03:04:48.818Z,98619.67
2022-08-22T03:06:02.192Z,98625.46
2022-08-22T03:07:32.322Z,98628.23
2022-08-22T03:08:47.592Z,98629.95
2022-08-22T03:10:17.858Z,98635.13
2022-08-22T03:11:33.911Z,98639.03
2022-08-22T03:13:11.572Z,98641.41
2022-08-22T03:14:36.974Z,98645.11
2022-08-22T03:16:06.090Z,98642.38
2022-08-22T03:17:30.851Z,98639.38
2022-08-22T03:19:14.873Z,98636.55
2022-08-22T03:21:00.728Z,98635.52
2022-08-22T03:22:23.933Z,98639.16
2022-08-22T03:23:42.580Z,98642.52
2022-08-22T03:25:18.002Z,98645.67
2022-08-22T03:26:35.571Z,98649.52
2022-08-22T03:27:49.482Z,98653.34
2022-08-22T03:29:10.338Z,98649.73
2022-08-22T03:30:31.266Z,98651.70
2022-08-22T03:31:39.392Z,98651.05
2022-08-22T03:33:21.207Z,98655.84
2022-08-22T03:34:29.820Z,98658.64
2022-08-22T03:35:47.040Z,98658.48
2022-08-22T03:37:27.261Z,98659.98
2022-08-22T03:38:35.365Z,98659.52
2022-08-22T03:40:03.761Z,98662.88
2022-08-22T03:41:33.202Z,98664.52
2022-08-22T03:43:01.703Z,98667.66
2022-08-22T03:44:25.870Z,98671.74
2022-08-22T03:45:45.440Z,98673.13
2022-08-22T03:47:30.805Z,98673.59
2022-08-22T03:49:08.340Z,98670.59
2022-08-22T03:50:42.160Z,98669.75
2022-08-22T03:52:07.926Z,98668.17
2022-08-22T03:53:26.818Z,98667.64
2022-08-22T03:54:51.759Z,98670.78
2022-08-22T03:56:28.972Z,98667.17
2022-08-22T03:58:00.670Z,98670.91
2022-08-22T03:59:28.417Z,98671.63
2022-08-22T04:00:40.635Z,98672.61
2022-08-22T04:02:03.618Z,98671.91
2022-08-22T04:04:05.538Z,98678.58
2022-08-22T04:05:52.830Z,98681.49
2022-08-22T04:07:38.088Z,98686.87
2022-08-22T04:09:20.157Z,98689.01
2022-08-22T04:11:03.839Z,98693.02
2022-08-22T04:12:33.637Z,98696.70
2022-08-22T04:13:46.790Z,98694.06
2022-08-22T04:15:10.911Z,98692.90
2022-08-22T04:16:42.557Z,98694.06
2022-08-22T04:18:20.034Z,98695.21
2022-08-22T04:20:13.636Z,98697.45
2022-08-22T04:21:38.216Z,98701.11
2022-08-22T04:23:30.458Z,98701.02
2022-08-22T04:24:52.163Z,98707.21
2022-08-22T04:26:12.163Z,98707.70
2022-08-22T04:27:41.678Z,98709.18
2022-08-22T04:28:55.901Z,98711.82
2022-08-22T04:30:09.342Z,98713.69
2022-08-22T04:31:19.798Z,98713.28
2022-08-22T04:32:53.366Z,98716.48
2022-08-22T04:34:04.551Z,98713.52
2022-08-22T04:35:19.225Z,98714.38
2022-08-22T04:36:47.643Z,98715.71
2022-08-22T04:38:26.500Z,98719.72
2022-08-22T04:39:44.076Z,98723.59
2022-08-22T04:41:26.003Z,98726.67
2022-08-22T04:43:02.019Z,98726.58
2022-08-22T04:44:30.249Z,98725.25
2022-08-22T04:45:42.341Z,98725.42
2022-08-22T04:47:04.258Z,98726.44
2022-08-22T04:48:18.867Z,98729.09
2022-08-22T04:49:32.720Z,98730.77
2022-08-22T04:51:07.718Z,98727.06
2022-08-22T04:52:34.474Z,98727.33
2022-08-22T04:54:01.228Z,98728.70
2022-08-22T04:55:34.647Z,98727.87
2022-08-22T04:56:49.107Z,98729.25
2022-08-22T04:58:18.168Z,98724.80
2022-08-22T04:59:26.573Z,98726.25
2022-08-22T05:00:46.667Z,98723.90
2022-08-22T05:01:58.958Z,98725.83
2022-08-22T05:03:06.812Z,98729.92
2022-08-22T05:04:23.285Z,98726.95
2022-08-22T05:05:35.641Z,98728.95
2022-08-22T05:06:46.327Z,98730.52
2022-08-22T05:07:59.210Z,98731.45
2022-08-22T05:09:15.498Z,98731.50
2022-08-22T05:10:25.821Z,98735.86
2022-08-22T05:11:34.007Z,98739.36
2022-08-22T05:13:02.290Z,98738.52
2022-08-22T05:14:27.448Z,98741.44
2022-08-22T05:15:40.222Z,98741.58
2022-08-22T05:16:51.109Z,98742.80
2022-08-22T05:18:01.609Z,98739.49
2022-08-22T05:19:27.042Z,98738.52
2022-08-22T05:20:37.038Z,98739.17
2022-08-22T05:21:44.894Z,98739.12
2022-08-22T05:22:59.121Z,98738.27
2022-08-22T05:24:11.276Z,98738.91
2022-08-22T05:25:23.748Z,98737.00
2022-08-22T05:26:32.226Z,98740.84
2022-08-22T05:27:45.509Z,98741.77
2022-08-22T05:28:56.550Z,98743.10
2022-08-22T05:30:10.959Z,98743.36
2022-08-22T05:31:23.447Z,98743.63
2022-08-22T05:32:56.872Z,98746.04
2022-08-22T05:34:19.718Z,98746.00
2022-08-22T05:35:51.591Z,98745.38
2022-08-22T05:37:33.707Z,98747.55
2022-08-22T05:38:52.070Z,98750.55
2022-08-22T05:40:01.172Z,98750.21
2022-08-22T05:41:13.536Z,98751.50
2022-08-22T05:42:30.248Z,98754.53
2022-08-22T05:43:42.982Z,98758.79
2022-08-22T05:44:50.471Z,98760.63
2022-08-22T05:45:59.342Z,98763.08
2022-08-22T05:47:17.047Z,98761.14
2022-08-22T05:48:33.969Z,98759.87
2022-08-22T05:50:05.446Z,98757.85
2022-08-22T05:51:20.532Z,98753.48
2022-08-22T05:53:01.064Z,98751.29
2022-08-22T05:54:16.611Z,98751.11
2022-08-22T05:55:57.917Z,98749.35
2022-08-22T05:57:34.007Z,98753.11
2022-08-22T05:58:45.250Z,98754.73
2022-08-22T05:59:56.595Z,98756.25
2022-08-22T06:01:27.138Z,98757.89
2022-08-22T06:02:59.441Z,98756.98
2022-08-22T06:04:24.837Z,98758.23
2022-08-22T06:05:34.322Z,98754.99
2022-08-22T06:07:06.640Z,98752.20
2022-08-22T06:08:25.189Z,98753.33
2022-08-22T06:09:55.154Z,98752.80
2022-08-22T06:11:33.800Z,98754.61
2022-08-22T06:12:45.057Z,98754.23
2022-08-22T06:14:05.444Z,98756.02
2022-08-22T06:15:48.497Z,98754.63
2022-08-22T06:17:17.668Z,98756.25
2022-08-22T06:18:28.095Z,98754.67
2022-08-22T06:19:38.564Z,98754.27
2022-08-22T06:20:55.609Z,98754.15
2022-08-22T06:22:03.134Z,98750.68
2022-08-22T06:23:13.165Z,98749.66
2022-08-22T06:24:27.039Z,98747.77
2022-08-22T06:25:37.528Z,98748.70
2022-08-22T06:26:48.696Z,98749.28
2022-08-22T06:27:57.611Z,98748.34
2022-08-22T06:29:06.149Z,98749.30
2022-08-22T06:30:15.550Z,98746.73
2022-08-22T06:31:44.126Z,98750.31
2022-08-22T06:32:58.964Z,98749.08
2022-08-22T06:34:11.780Z,98746.69
2022-08-22T06:35:54.398Z,98746.41
2022-08-22T06:37:03.839Z,98748.59
2022-08-22T06:38:13.797Z,98751.28
2022-08-22T06:39:32.947Z,98750.65
2022-08-22T06:40:41.937Z,98750.94
2022-08-22T06:42:14.533Z,98752.34
2022-08-22T06:43:26.003Z,98751.98
2022-08-22T06:44:37.846Z,98751.65
2022-08-22T06:45:45.253Z,98753.06
2022-08-22T06:46:55.649Z,98754.55
2022-08-22T06:48:17.175Z,98756.21
2022-08-22T06:49:26.014Z,98756.67
2022-08-22T06:50:41.974Z,98759.69
2022-08-22T06:51:50.216Z,98759.76
2022-08-22T06:53:22.488Z,98758.77
2022-08-22T06:54:34.531Z,98752.89
2022-08-22T06:55:44.650Z,98754.63
2022-08-22T06:56:54.256Z,98752.77
2022-08-22T06:58:07.049Z,98752.59
2022-08-22T06:59:20.140Z,98750.36
2022-08-22T07:00:30.007Z,98744.21
2022-08-22T07:01:44.690Z,98745.34
2022-08-22T07:02:56.555Z,98740.68
2022-08-22T07:04:08.525Z,98745.05
2022-08-22T07:05:25.211Z,98741.39
2022-08-22T07:06:40.577Z,98743.96
2022-08-22T07:07:48.658Z,98747.92
2022-08-22T07:08:58.770Z,98749.75
2022-08-22T07:10:06.831Z,98753.52
2022-08-22T07:11:19.073Z,98756.46
2022-08-22T07:12:31.979Z,98758.01
2022-08-22T07:13:40.219Z,98761.97
2022-08-22T07:14:53.370Z,98761.52
2022-08-22T07:16:01.260Z,98765.25
2022-08-22T07:17:09.960Z,98763.91
2022-08-22T07:18:21.543Z,98763.83
2022-08-22T07:19:35.695Z,98761.02
2022-08-22T07:20:47.219Z,98761.29
2022-08-22T07:21:54.850Z,98761.83
2022-08-22T07:23:04.816Z,98762.35
2022-08-22T07:24:12.128Z,98761.67
2022-08-22T07:25:19.379Z,98763.71
2022-08-22T07:26:35.769Z,98763.46
2022-08-22T07:28:04.093Z,98763.60
2022-08-22T07:29:44.236Z,98762.85
2022-08-22T07:30:59.331Z,98761.39
2022-08-22T07:32:43.206Z,98759.85
2022-08-22T07:33:57.321Z,98759.30
2022-08-22T07:35:15.310Z,98757.48
2022-08-22T07:36:27.360Z,98753.62
2022-08-22T07:37:50.154Z,98749.80
2022-08-22T07:39:21.534Z,98750.00
2022-08-22T07:40:36.328Z,98752.20
2022-08-22T07:42:02.109Z,98748.91
2022-08-22T07:43:30.252Z,98744.13
2022-08-22T07:45:13.141Z,98743.27
2022-08-22T07:46:37.490Z,98747.06
2022-08-22T07:48:05.760Z,98742.08
2022-08-22T07:49:24.171Z,98735.58
2022-08-22T07:50:45.204Z,98733.32
2022-08-22T07:51:54.741Z,98728.71
2022-08-22T07:53:27.591Z,98726.39
2022-08-22T07:55:03.001Z,98723.48
2022-08-22T07:56:14.619Z,98726.23
2022-08-22T07:57:41.301Z,98727.07
2022-08-22T07:58:50.000Z,98726.68
2022-08-22T07:59:57.981Z,98732.05
2022-08-22T08:01:05.211Z,98733.77
2022-08-22T08:02:13.781Z,98729.05
2022-08-22T08:03:23.332Z,98728.83
2022-08-22T08:04:40.049Z,98728.94
2022-08-22T08:05:48.428Z,98728.45
2022-08-22T08:06:57.081Z,98728.88
2022-08-22T08:08:15.522Z,98728.58
2022-08-22T08:09:23.124Z,98726.38
2022-08-22T08:10:36.611Z,98724.19
2022-08-22T08:11:43.788Z,98724.59
2022-08-22T08:13:02.282Z,98727.30
2022-08-22T08:14:10.452Z,98726.94
2022-08-22T08:15:23.370Z,98730.89
2022-08-22T08:16:32.700Z,98731.35
2022-08-22T08:17:39.922Z,98728.77
2022-08-22T08:18:48.381Z,98728.34
2022-08-22T08:19:55.402Z,98728.71
2022-08-22T08:21:05.346Z,98729.69
2022-08-22T08:22:18.977Z,98727.56
2022-08-22T08:23:28.681Z,98729.32
2022-08-22T08:24:42.142Z,98727.62
2022-08-22T08:26:17.034Z,98728.49
2022-08-22T08:27:44.497Z,98726.83
2022-08-22T08:29:00.521Z,98728.16
2022-08-22T08:30:16.410Z,98726.75
2022-08-22T08:31:38.127Z,98727.48
2022-08-22T08:32:57.445Z,98727.52
2022-08-22T08:34:27.580Z,98727.88
2022-08-22T08:35:42.305Z,98729.39
2022-08-22T08:37:16.247Z,98727.39
2022-08-22T08:38:30.139Z,98724.70
2022-08-22T08:39:44.917Z,98721.70
2022-08-22T08:41:13.943Z,98719.63
2022-08-22T08:43:10.981Z,98721.70
2022-08-22T08:44:37.583Z,98720.11
2022-08-22T08:46:13.297Z,98716.34
2022-08-22T08:47:33.081Z,98718.39
2022-08-22T08:49:17.648Z,98717.97
2022-08-22T08:50:52.046Z,98718.29
2022-08-22T08:52:31.222Z,98717.48
2022-08-22T08:54:00.240Z,98719.44
2022-08-22T08:55:45.835Z,98720.28
2022-08-22T08:57:25.980Z,98723.94
2022-08-22T08:58:51.084Z,98723.06
2022-08-22T09:00:23.123Z,98727.06
2022-08-22T09:01:49.385Z,98729.13
2022-08-22T09:03:15.655Z,98730.47
2022-08-22T09:04:51.057Z,98731.31
2022-08-22T09:06:02.873Z,98734.63
2022-08-22T09:07:20.761Z,98731.98
2022-08-22T09:08:50.681Z,98732.32
2022-08-22T09:10:27.441Z,98735.00
2022-08-22T09:12:15.812Z,98735.55
2022-08-22T09:13:50.217Z,98735.42
2022-08-22T09:15:02.003Z,98733.39
2022-08-22T09:16:38.216Z,98733.63
2022-08-22T09:18:00.411Z,98736.23
2022-08-22T09:19:30.550Z,98731.64
2022-08-22T09:21:02.617Z,98732.65
2022-08-22T09:24:20.877Z,98732.63
2022-08-22T09:25:52.254Z,98730.15
2022-08-22T09:27:08.977Z,98726.47
2022-08-22T09:28:34.583Z,98723.58
2022-08-22T09:29:51.691Z,98725.07
2022-08-22T09:31:16.795Z,98731.83
2022-08-22T09:33:03.261Z,98734.98
2022-08-22T09:34:31.535Z,98735.63
2022-08-22T09:35:50.924Z,98735.63
2022-08-22T09:37:24.285Z,98738.93
2022-08-22T09:39:20.919Z,98735.84
2022-08-22T09:40:33.022Z,98733.59
2022-08-22T09:42:00.874Z,98730.73
2022-08-22T09:43:21.089Z,98731.96
2022-08-22T09:44:39.465Z,98732.73
2022-08-22T09:46:02.288Z,98728.06
2022-08-22T09:47:09.736Z,98729.79
2022-08-22T09:48:23.850Z,98726.58
2022-08-22T09:49:47.624Z,98726.42
2022-08-22T09:51:33.083Z,98724.84
2022-08-22T09:53:02.412Z,98721.08
2022-08-22T09:54:12.649Z,98720.40
2022-08-22T09:55:41.114Z,98717.08
2022-08-22T09:57:09.503Z,98716.38
2022-08-22T09:58:41.756Z,98719.45
2022-08-22T10:00:26.821Z,98721.94
2022-08-22T10:02:15.545Z,98729.55
2022-08-22T10:03:51.674Z,98741.55
2022-08-22T10:05:35.238Z,98750.00
2022-08-22T10:07:25.845Z,98759.27
2022-08-22T10:09:08.941Z,98767.77
2022-08-22T10:10:27.336Z,98777.23
2022-08-22T10:11:45.284Z,98783.30
2022-08-22T10:13:29.771Z,98787.11
2022-08-22T10:15:17.662Z,98790.45
2022-08-22T10:16:38.355Z,98777.14
2022-08-22T10:18:10.325Z,98772.50
2022-08-22T10:19:44.769Z,98766.79
2022-08-22T10:21:15.052Z,98765.38
2022-08-22T10:22:29.768Z,98760.33
2022-08-22T10:23:58.213Z,98761.76
2022-08-22T10:25:11.613Z,98764.73
2022-08-22T10:26:38.974Z,98766.98
2022-08-22T10:28:02.183Z,98763.05
2022-08-22T10:29:34.432Z,98765.59
2022-08-22T10:30:47.394Z,98769.83
2022-08-22T10:32:27.170Z,98769.88
2022-08-22T10:33:44.303Z,98766.06
2022-08-22T10:34:52.572Z,98766.81
2022-08-22T10:36:11.971Z,98763.22
2022-08-22T10:37:46.143Z,98758.55
2022-08-22T10:38:57.874Z,98758.81
2022-08-22T10:40:31.783Z,98755.84
2022-08-22T10:42:03.203Z,98754.97
2022-08-22T10:43:43.891Z,98756.06
2022-08-22T10:45:24.087Z,98759.79
2022-08-22T10:46:56.331Z,98765.73
2022-08-22T10:48:09.030Z,98769.41
2022-08-22T10:49:37.308Z,98769.75
2022-08-22T10:50:51.173Z,98769.52
2022-08-22T10:52:16.200Z,98766.43
2022-08-22T10:53:44.245Z,98760.90
2022-08-22T10:54:55.063Z,98759.17
2022-08-22T10:56:27.881Z,98761.98
2022-08-22T10:57:52.080Z,98760.20
2022-08-22T10:59:24.212Z,98759.40
2022-08-22T11:00:46.425Z,98764.14
2022-08-22T11:02:20.373Z,98763.65
2022-08-22T11:03:58.154Z,98761.77
2022-08-22T11:05:19.211Z,98763.23
2022-08-22T11:06:29.653Z,98763.77
2022-08-22T11:07:57.445Z,98764.61
2022-08-22T11:09:16.366Z,98766.91
2022-08-22T11:10:50.565Z,98765.91
2022-08-22T11:12:26.692Z,98764.02
2022-08-22T11:14:04.423Z,98755.29
2022-08-22T11:15:52.352Z,98752.32
2022-08-22T11:17:30.209Z,98742.80
2022-08-22T11:19:15.122Z,98734.67
2022-08-22T11:20:44.722Z,98734.55
2022-08-22T11:22:22.537Z,98732.95
2022-08-22T11:23:41.603Z,98735.42
2022-08-22T11:25:38.768Z,98739.27
2022-08-22T11:26:50.370Z,98735.24
2022-08-22T11:28:03.433Z,98728.46
2022-08-22T11:29:26.674Z,98721.67
2022-08-22T11:30:47.994Z,98715.81
2022-08-22T11:32:10.832Z,98712.95
2022-08-22T11:33:46.663Z,98713.79
2022-08-22T11:34:55.685Z,98723.46
2022-08-22T11:36:12.170Z,98723.14
2022-08-22T11:37:42.700Z,98719.13
2022-08-22T11:39:44.653Z,98713.80
2022-08-22T11:41:16.945Z,98710.16
2022-08-22T11:42:47.700Z,98704.01
2022-08-22T11:44:08.110Z,98708.24
2022-08-22T11:45:20.233Z,98709.63
2022-08-22T11:46:39.250Z,98713.06
2022-08-22T11:48:03.289Z,98713.39
2022-08-22T11:49:21.223Z,98713.52
2022-08-22T11:50:38.794Z,98714.52
2022-08-22T11:52:04.993Z,98711.64
2022-08-22T11:53:27.817Z,98704.94
2022-08-22T11:55:00.253Z,98706.15
2022-08-22T11:56:28.704Z,98707.61
2022-08-22T11:58:08.603Z,98710.95
2022-08-22T11:59:25.221Z,98711.30
2022-08-22T12:00:50.073Z,98712.89
2022-08-22T12:02:03.915Z,98715.23
2022-08-22T12:03:23.193Z,98717.36
2022-08-22T12:04:45.503Z,98717.77
2022-08-22T12:05:53.782Z,98721.70
2022-08-22T12:07:24.932Z,98723.30
2022-08-22T12:08:32.377Z,98723.42
2022-08-22T12:09:41.806Z,98727.89
2022-08-22T12:11:08.785Z,98726.53
2022-08-22T12:13:03.888Z,98725.27
2022-08-22T12:14:20.815Z,98727.08
2022-08-22T12:15:53.982Z,98724.91
2022-08-22T12:17:55.116Z,98726.08
2022-08-22T12:19:09.963Z,98728.81
2022-08-22T12:20:23.805Z,98730.41
2022-08-22T12:22:00.046Z,98732.89
2022-08-22T12:23:30.036Z,98732.81
2022-08-22T12:25:07.088Z,98728.23
2022-08-22T12:26:32.701Z,98727.81
2022-08-22T12:27:50.969Z,98724.39
2022-08-22T12:29:34.055Z,98723.34
2022-08-22T12:31:12.737Z,98722.84
2022-08-22T12:32:34.899Z,98722.43
2022-08-22T12:33:44.767Z,98721.33
2022-08-22T12:35:32.383Z,98720.41
2022-08-22T12:36:56.602Z,98723.89
2022-08-22T12:38:28.277Z,98725.98
2022-08-22T12:39:43.825Z,98734.88
2022-08-22T12:41:28.079Z,98738.19
2022-08-22T12:43:01.024Z,98737.73
2022-08-22T12:44:29.145Z,98738.51
2022-08-22T12:45:44.677Z,98737.10
2022-08-22T12:47:26.973Z,98734.21
2022-08-22T12:48:58.857Z,98741.22
2022-08-22T12:50:31.987Z,98740.05
2022-08-22T12:52:04.730Z,98741.85
2022-08-22T12:53:26.327Z,98745.07
2022-08-22T12:54:54.683Z,98749.34
2022-08-22T12:56:16.105Z,98751.91
2022-08-22T12:57:54.139Z,98752.83
2022-08-22T12:59:31.735Z,98753.96
2022-08-22T13:00:48.793Z,98763.52
2022-08-22T13:01:58.429Z,98762.52
2022-08-22T13:03:36.665Z,98760.14
2022-08-22T13:05:19.553Z,98755.93
2022-08-22T13:06:54.215Z,98754.21
2022-08-22T13:08:05.160Z,98754.98
2022-08-22T13:09:28.837Z,98753.34
2022-08-22T13:10:49.161Z,98751.45
2022-08-22T13:11:59.355Z,98757.19
2022-08-22T13:13:12.100Z,98760.95
2022-08-22T13:14:25.953Z,98761.19
2022-08-22T13:15:39.401Z,98760.52
2022-08-22T13:16:51.712Z,98757.84
2022-08-22T13:18:25.258Z,98756.79
2022-08-22T13:19:37.872Z,98755.96
2022-08-22T13:20:46.093Z,98760.64
2022-08-22T13:22:20.826Z,98762.08
2022-08-22T13:23:34.311Z,98760.61
2022-08-22T13:25:00.500Z,98756.75
2022-08-22T13:26:33.453Z,98756.36
2022-08-22T13:28:02.288Z,98756.51
2022-08-22T13:29:26.802Z,98760.69
2022-08-22T13:30:39.002Z,98757.20
2022-08-22T13:31:46.019Z,98755.82
2022-08-22T13:33:05.283Z,98756.14
2022-08-22T13:34:34.789Z,98759.02
2022-08-22T13:35:57.465Z,98758.47
2022-08-22T13:37:04.851Z,98760.46
2022-08-22T13:38:36.654Z,98758.33
2022-08-22T13:39:46.919Z,98760.44
2022-08-22T13:41:00.246Z,98762.70
2022-08-22T13:42:14.621Z,98759.98
2022-08-22T13:43:56.461Z,98765.31
2022-08-22T13:45:06.445Z,98767.21
2022-08-22T13:46:14.073Z,98767.04
2022-08-22T13:47:24.462Z,98766.77
2022-08-22T13:48:52.643Z,98768.18
2022-08-22T13:50:20.354Z,98772.38
2022-08-22T13:51:41.493Z,98769.90
2022-08-22T13:52:57.840Z,98770.91
2022-08-22T13:54:20.696Z,98769.86
2022-08-22T13:55:35.530Z,98770.79
2022-08-22T13:56:50.708Z,98769.55
2022-08-22T13:58:07.678Z,98771.72
2022-08-22T13:59:49.571Z,98772.40
2022-08-22T14:01:09.644Z,98776.80
2022-08-22T14:02:30.930Z,98776.94
2022-08-22T14:04:34.609Z,98777.70
2022-08-22T14:06:06.236Z,98778.14
2022-08-22T14:07:53.001Z,98773.71
2022-08-22T14:09:31.996Z,98770.83
2022-08-22T14:10:42.636Z,98768.16
2022-08-22T14:11:57.813Z,98767.75
2022-08-22T14:13:19.032Z,98771.53
2022-08-22T14:14:32.479Z,98771.00
2022-08-22T14:15:45.203Z,98774.19
2022-08-22T14:16:54.773Z,98776.25
2022-08-22T14:18:11.925Z,98780.02
2022-08-22T14:19:52.670Z,98779.44
2022-08-22T14:21:33.472Z,98776.59
2022-08-22T14:23:03.864Z,98773.84
2022-08-22T14:24:19.473Z,98772.17
2022-08-22T14:25:28.013Z,98770.67
2022-08-22T14:26:47.449Z,98764.80
2022-08-22T14:28:06.349Z,98763.70
2022-08-22T14:29:18.022Z,98762.26
2022-08-22T14:30:33.133Z,98762.20
2022-08-22T14:31:41.242Z,98765.51
2022-08-22T14:33:07.633Z,98771.12
2022-08-22T14:34:16.117Z,98773.25
2022-08-22T14:35:34.718Z,98774.88
2022-08-22T14:36:48.133Z,98773.95
2022-08-22T14:37:56.804Z,98772.52
2022-08-22T14:39:12.574Z,98774.73
2022-08-22T14:40:30.513Z,98769.11
2022-08-22T14:41:55.543Z,98769.05
2022-08-22T14:43:10.046Z,98769.78
2022-08-22T14:44:24.335Z,98771.83
2022-08-22T14:45:36.942Z,98770.71
2022-08-22T14:46:58.577Z,98772.02
2022-08-22T14:48:29.584Z,98775.96
2022-08-22T14:49:52.833Z,98771.58
2022-08-22T14:51:08.598Z,98772.98
2022-08-22T14:52:30.273Z,98774.13
2022-08-22T14:53:40.425Z,98777.75
2022-08-22T14:54:48.635Z,98775.00
2022-08-22T14:56:07.749Z,98775.10
2022-08-22T14:57:20.102Z,98780.20
2022-08-22T14:58:29.532Z,98783.20
2022-08-22T14:59:47.054Z,98783.81
2022-08-22T15:00:59.664Z,98780.96
2022-08-22T15:02:16.052Z,98781.48
2022-08-22T15:03:35.204Z,98779.83
2022-08-22T15:05:05.415Z,98783.37
2022-08-22T15:06:31.850Z,98786.63
2022-08-22T15:07:40.961Z,98789.02
2022-08-22T15:08:53.590Z,98790.04
2022-08-22T15:10:21.504Z,98791.56
2022-08-22T15:11:33.923Z,98794.02
2022-08-22T15:12:51.001Z,98791.72
2022-08-22T15:13:59.521Z,98794.36
2022-08-22T15:15:41.262Z,98793.43
2022-08-22T15:17:01.929Z,98788.93
2022-08-22T15:18:20.577Z,98789.84
2022-08-22T15:19:41.178Z,98788.05
2022-08-22T15:20:52.224Z,98791.30
2022-08-22T15:22:21.310Z,98787.42
2022-08-22T15:23:34.488Z,98782.91
2022-08-22T15:25:29.318Z,98783.05
2022-08-22T15:26:52.320Z,98780.27
2022-08-22T15:28:07.853Z,98777.91
2022-08-22T15:29:29.006Z,98778.57
2022-08-22T15:30:44.285Z,98779.24
2022-08-22T15:31:57.164Z,98779.77
2022-08-22T15:33:25.819Z,98780.36
2022-08-22T15:34:34.521Z,98779.63
2022-08-22T15:35:43.604Z,98781.49
2022-08-22T15:37:20.452Z,98783.33
2022-08-22T15:38:36.930Z,98785.16
2022-08-22T15:40:08.125Z,98781.13
2022-08-22T15:41:36.607Z,98780.96
2022-08-22T15:42:48.111Z,98779.19
2022-08-22T15:44:30.974Z,98775.46
2022-08-22T15:45:41.583Z,98778.85
2022-08-22T15:47:23.981Z,98776.83
2022-08-22T15:48:40.391Z,98777.02
2022-08-22T15:49:58.091Z,98781.13
2022-08-22T15:51:16.205Z,98778.15
2022-08-22T15:52:36.558Z,98778.86
2022-08-22T15:53:47.173Z,98781.46
2022-08-22T15:55:00.559Z,98776.49
2022-08-22T15:56:20.745Z,98780.75
2022-08-22T15:57:33.345Z,98786.77
2022-08-22T15:58:49.650Z,98785.66
2022-08-22T16:00:01.187Z,98789.36
2022-08-22T16:01:20.479Z,98792.02
2022-08-22T16:02:35.140Z,98788.92
2022-08-22T16:04:03.803Z,98788.80
2022-08-22T16:05:14.332Z,98788.42
2022-08-22T16:06:54.895Z,98790.41
2022-08-22T16:08:14.308Z,98785.10
2022-08-22T16:09:49.096Z,98784.61
2022-08-22T16:11:05.779Z,98781.23
2022-08-22T16:12:20.457Z,98786.48
2022-08-22T16:13:34.096Z,98787.66
2022-08-22T16:14:47.550Z,98784.93
2022-08-22T16:16:01.298Z,98783.75